GIJÓN CAMPUS, ASTURIAS

latitud = 43° 31' 23''N | Longitud = 005° 37' 16''W
26 metros sobre el nivel del mar | datos mensuales

Fecha, hora, temperatura, viento dirección y velocidad, humedad y presión.

  • 21-08-2018 22:00:00 | 21.60°C | Este |5.00 km/h | 88.00% | 1013.30 hPa
  • 21-08-2018 21:00:00 | 22.50°C | Este |10.00 km/h | 84.00% | 1013.00 hPa
  • 21-08-2018 20:00:00 | 24.00°C | Este |8.00 km/h | 79.00% | 1012.80 hPa
  • 21-08-2018 19:00:00 | 24.20°C | Este |10.00 km/h | 78.00% | 1013.00 hPa
  • 21-08-2018 18:00:00 | 25.00°C | Este |12.00 km/h | 75.00% | 1013.20 hPa
  • 21-08-2018 17:00:00 | 25.00°C | Nordeste |12.00 km/h | 75.00% | 1013.50 hPa
  • 21-08-2018 15:00:00 | 25.90°C | Nordeste |11.00 km/h | 71.00% | 1013.90 hPa
  • 21-08-2018 15:00:00 | 25.90°C | Nordeste |11.00 km/h | 71.00% | 1013.90 hPa
  • 21-08-2018 14:00:00 | 25.60°C | Nordeste |10.00 km/h | 70.00% | 1014.20 hPa
  • 21-08-2018 13:00:00 | 25.20°C | Este |13.00 km/h | 61.00% | 1014.80 hPa
  • 21-08-2018 11:00:00 | 22.70°C | Este |9.00 km/h | 77.00% | 1015.70 hPa
  • 21-08-2018 11:00:00 | 22.70°C | Este |9.00 km/h | 77.00% | 1015.70 hPa
  • 21-08-2018 10:00:00 | 20.80°C | Este |9.00 km/h | 87.00% | 1015.70 hPa
  • 21-08-2018 09:00:00 | 16.70°C | Calma |0.00 km/h | 99.00% | 1015.80 hPa
  • 21-08-2018 08:00:00 | 14.90°C | Nordeste |2.00 km/h | 99.00% | 1015.70 hPa
  • 21-08-2018 07:00:00 | 14.70°C | Sudeste |5.00 km/h | 98.00% | 1015.60 hPa
  • 21-08-2018 06:00:00 | 15.00°C | Calma |0.00 km/h | 96.00% | 1015.60 hPa
  • 21-08-2018 05:00:00 | 16.10°C | Sur |2.00 km/h | 95.00% | 1015.70 hPa
  • 21-08-2018 04:00:00 | 17.00°C | Este |3.00 km/h | 96.00% | 1016.00 hPa
  • 21-08-2018 03:00:00 | 17.50°C | Este |2.00 km/h | 95.00% | 1016.40 hPa
  • 21-08-2018 02:00:00 | 17.60°C | Calma |0.00 km/h | 94.00% | 1017.00 hPa
  • 21-08-2018 01:00:00 | 18.40°C | Este |2.00 km/h | 91.00% | 1017.40 hPa
  • 20-08-2018 23:00:00 | 19.50°C | Este |7.00 km/h | 89.00% | 1017.70 hPa
  • 20-08-2018 22:00:00 | 19.90°C | Este |5.00 km/h | 87.00% | 1017.40 hPa
    • Gijón hora a hora, datos reales de la temperatura, viento dirección, velocidad, más la humedad relativa y presión atmosférica.
      La estación meteorológica del Campus de Viesques de Gijón hora a hora, mes a mes, año a año; presentada de una forma gráfica, datos recogidos desde el mes de enero del año 2014. Recomendamos un ordenador de sobremesa: https://meteorologia.tike10.com/asturias-gijon.php